Time;durP1;ratioP1;P1;durP2;ratioP2;P2;SDS_P1;SDS_P2;PMS_P1;PMS_P2;Temp;Humidity;BMP_temperature;BMP_pressure;BME280_temperature;BME280_humidity;BME280_pressure;Samples;Min_cycle;Max_cycle;Signal;HPM_P1;HPM_P2
2022/05/20 00:02:18;;;;;;;0.82;0.20;;;;;;;12.49;100.00;100129.84;7397306;19;20097;-60
2022/05/20 00:04:45;;;;;;;7.88;1.00;;;;;;;12.48;100.00;100133.88;7394332;19;20474;-62
2022/05/20 00:07:11;;;;;;;1.80;0.57;;;;;;;12.44;100.00;100145.28;7394525;19;20007;-62
2022/05/20 00:09:37;;;;;;;0.68;0.30;;;;;;;12.37;100.00;100148.44;7393812;19;20031;-62
2022/05/20 00:12:05;;;;;;;0.25;0.25;;;;;;;12.30;100.00;100145.25;7397142;19;20358;-60
2022/05/20 00:14:32;;;;;;;3.40;0.60;;;;;;;12.29;100.00;100144.50;7396983;19;20018;-60
2022/05/20 00:17:04;;;;;;;5.22;0.63;;;;;;;12.26;100.00;100134.25;7392569;19;20006;-59
2022/05/20 00:19:30;;;;;;;0.32;0.25;;;;;;;12.20;100.00;100136.19;7393307;19;20014;-58
2022/05/20 00:21:56;;;;;;;0.50;0.50;;;;;;;12.16;100.00;100130.81;7394662;19;20018;-58
2022/05/20 00:24:22;;;;;;;7.18;0.63;;;;;;;12.19;100.00;100135.41;7394126;19;20061;-60
2022/05/20 00:26:50;;;;;;;6.28;0.90;;;;;;;12.18;100.00;100125.50;7393623;19;20014;-58
2022/05/20 00:29:17;;;;;;;5.90;0.60;;;;;;;12.22;100.00;100130.13;7393536;19;20014;-60
2022/05/20 00:31:44;;;;;;;0.20;0.20;;;;;;;12.18;100.00;100145.06;7395861;19;20490;-60
2022/05/20 00:34:10;;;;;;;1.05;0.95;;;;;;;12.11;100.00;100145.44;7392488;19;20365;-60
2022/05/20 00:36:37;;;;;;;0.60;0.60;;;;;;;11.91;100.00;100133.38;7393634;19;20007;-60
2022/05/20 00:39:03;;;;;;;4.47;0.75;;;;;;;12.22;100.00;100130.91;7392985;19;20011;-60
2022/05/20 00:41:30;;;;;;;1.08;0.47;;;;;;;12.28;100.00;100128.22;7394060;19;20011;-60
2022/05/20 00:43:58;;;;;;;0.47;0.47;;;;;;;12.41;100.00;100125.91;7390381;19;20014;-59
2022/05/20 00:46:28;;;;;;;0.38;0.38;;;;;;;12.18;100.00;100125.50;7393433;19;20007;-59
2022/05/20 00:49:09;;;;;;;4.15;0.38;;;;;;;12.14;100.00;100127.72;7392798;19;20086;-60
2022/05/20 00:51:42;;;;;;;0.35;0.32;;;;;;;12.22;100.00;100127.31;7393681;19;20028;-59
2022/05/20 00:54:13;;;;;;;5.57;0.73;;;;;;;12.45;100.00;100123.69;7391874;19;20018;-59
2022/05/20 00:57:12;;;;;;;0.70;0.40;;;;;;;12.67;100.00;100124.06;7392843;19;20328;-59
2022/05/20 00:59:43;;;;;;;2.40;0.65;;;;;;;12.63;100.00;100117.88;7390443;19;20021;-59
2022/05/20 01:02:18;;;;;;;4.40;0.80;;;;;;;12.59;100.00;100103.34;7392401;19;20014;-60
2022/05/20 01:04:44;;;;;;;0.30;0.30;;;;;;;12.48;100.00;100111.53;7391743;19;20014;-58
2022/05/20 01:07:12;;;;;;;1.58;0.45;;;;;;;12.44;100.00;100111.75;7393330;19;20010;-60
2022/05/20 01:09:39;;;;;;;0.73;0.68;;;;;;;12.46;100.00;100119.63;7393349;19;20047;-58
2022/05/20 01:12:06;;;;;;;1.50;0.95;;;;;;;12.38;100.00;100118.50;7394279;19;20018;-58
2022/05/20 01:14:33;;;;;;;3.45;0.20;;;;;;;12.29;100.00;100132.53;7394900;19;20035;-58
2022/05/20 01:17:00;;;;;;;4.50;0.65;;;;;;;12.32;100.00;100120.41;7392474;19;20018;-58
2022/05/20 01:19:36;;;;;;;0.77;0.75;;;;;;;12.36;100.00;100116.19;7391408;19;20010;-60
2022/05/20 01:22:05;;;;;;;0.40;0.28;;;;;;;12.40;100.00;100115.97;7394613;19;20090;-59
2022/05/20 01:24:31;;;;;;;0.88;0.40;;;;;;;12.47;100.00;100127.56;7392717;19;20100;-60
2022/05/20 01:26:57;;;;;;;0.55;0.30;;;;;;;12.46;100.00;100112.03;7393125;19;20078;-60
2022/05/20 01:29:24;;;;;;;0.90;0.85;;;;;;;12.53;100.00;100113.66;7391900;19;20070;-58
2022/05/20 01:31:50;;;;;;;0.35;0.35;;;;;;;12.54;100.00;100104.06;7393575;19;20102;-59
2022/05/20 01:34:17;;;;;;;0.73;0.50;;;;;;;12.63;100.00;100103.91;7392268;19;20032;-60
2022/05/20 01:36:43;;;;;;;0.77;0.40;;;;;;;12.66;100.00;100098.16;7391070;19;20006;-58
2022/05/20 01:39:09;;;;;;;0.68;0.68;;;;;;;12.69;100.00;100108.34;7391225;19;20010;-58
2022/05/20 01:41:49;;;;;;;4.60;0.40;;;;;;;12.79;100.00;100097.84;7393015;19;20471;-58
2022/05/20 01:44:23;;;;;;;1.42;0.50;;;;;;;12.79;100.00;100100.63;7390743;19;20351;-59
2022/05/20 01:47:06;;;;;;;0.20;0.10;;;;;;;12.76;100.00;100093.97;7392452;19;20014;-58
2022/05/20 01:49:51;;;;;;;0.45;0.40;;;;;;;12.73;100.00;100099.78;7391542;19;20066;-59
2022/05/20 01:52:30;;;;;;;1.45;1.02;;;;;;;12.78;100.00;100099.84;7393541;19;20467;-58
2022/05/20 01:55:10;;;;;;;0.80;0.80;;;;;;;12.77;100.00;100095.53;7391301;19;20656;-58
2022/05/20 01:57:47;;;;;;;0.35;0.20;;;;;;;12.70;100.00;100095.16;7389792;19;20045;-58
2022/05/20 02:00:25;;;;;;;0.90;0.50;;;;;;;12.72;100.00;100096.22;7389505;19;20011;-58
2022/05/20 02:03:11;;;;;;;0.70;0.70;;;;;;;12.85;100.00;100087.50;7391229;19;20566;-59
2022/05/20 02:05:49;;;;;;;0.70;0.70;;;;;;;12.92;100.00;100075.94;7390245;19;20011;-58
2022/05/20 02:08:21;;;;;;;1.45;0.55;;;;;;;12.97;100.00;100086.44;7391486;19;20033;-58
2022/05/20 02:11:08;;;;;;;1.02;0.22;;;;;;;12.93;100.00;100085.84;7390677;19;20010;-58
2022/05/20 02:13:39;;;;;;;0.45;0.45;;;;;;;12.95;100.00;100088.91;7390735;19;20013;-60
2022/05/20 02:16:11;;;;;;;0.47;0.43;;;;;;;12.99;100.00;100089.50;7390237;19;20011;-59
2022/05/20 02:18:51;;;;;;;0.93;0.80;;;;;;;13.01;100.00;100087.00;7390182;19;20045;-59
2022/05/20 02:21:22;;;;;;;2.40;0.30;;;;;;;12.98;100.00;100087.19;7390424;19;20073;-58
2022/05/20 02:23:55;;;;;;;1.40;0.70;;;;;;;12.78;100.00;100090.69;7387301;19;20324;-58
2022/05/20 02:26:26;;;;;;;1.27;0.40;;;;;;;12.73;100.00;100074.63;7394327;19;20744;-58
2022/05/20 02:29:00;;;;;;;0.43;0.43;;;;;;;12.79;100.00;100073.47;7389118;19;20011;-58
2022/05/20 02:31:34;;;;;;;4.28;0.85;;;;;;;12.82;100.00;100074.53;7390029;19;20056;-58
2022/05/20 02:34:01;;;;;;;1.02;0.63;;;;;;;12.74;100.00;100064.97;7389935;19;20006;-58
2022/05/20 02:36:33;;;;;;;0.52;0.52;;;;;;;12.78;100.00;100055.13;7387167;19;20015;-58
2022/05/20 02:38:59;;;;;;;0.10;0.10;;;;;;;12.78;100.00;100062.75;7389079;19;20517;-58
2022/05/20 02:41:26;;;;;;;0.68;0.68;;;;;;;12.74;100.00;100051.00;7389353;19;20022;-58
2022/05/20 02:43:52;;;;;;;1.15;0.47;;;;;;;12.71;100.00;100057.59;7388067;19;20018;-58
2022/05/20 02:46:18;;;;;;;4.00;1.17;;;;;;;12.57;100.00;100052.78;7389423;19;20011;-58
2022/05/20 02:48:44;;;;;;;1.23;0.57;;;;;;;12.52;100.00;100056.25;7389370;19;20014;-59
2022/05/20 02:51:11;;;;;;;1.95;0.90;;;;;;;12.69;100.00;100055.25;7387239;19;20007;-59
2022/05/20 02:53:37;;;;;;;2.28;0.35;;;;;;;12.83;100.00;100059.28;7389376;19;20014;-58
2022/05/20 02:56:04;;;;;;;1.30;0.75;;;;;;;12.86;100.00;100059.06;7393817;19;20011;-58
2022/05/20 03:04:10;;;;;;;1.65;0.43;;;;;;;12.78;100.00;100040.38;7385143;19;20010;-59
2022/05/20 03:06:46;;;;;;;3.83;0.60;;;;;;;12.77;100.00;100047.25;7389108;19;20014;-59
2022/05/20 03:09:15;;;;;;;1.45;0.75;;;;;;;12.76;100.00;100032.50;7387909;19;20015;-58
2022/05/20 03:11:42;;;;;;;0.47;0.43;;;;;;;12.75;100.00;100025.38;7390116;19;20021;-58
2022/05/20 03:14:10;;;;;;;1.55;0.52;;;;;;;12.75;100.00;100033.00;7392073;19;20011;-59
2022/05/20 03:16:38;;;;;;;0.55;0.30;;;;;;;12.76;100.00;100031.72;7396489;19;20006;-58
2022/05/20 03:19:04;;;;;;;2.45;0.57;;;;;;;12.75;100.00;100030.19;7396472;19;20028;-58
2022/05/20 03:21:32;;;;;;;0.70;0.43;;;;;;;12.71;100.00;100030.38;7397374;19;20044;-58
2022/05/20 03:23:59;;;;;;;1.40;0.55;;;;;;;12.65;100.00;100023.94;7392961;19;20007;-58
2022/05/20 03:26:27;;;;;;;1.42;0.60;;;;;;;12.56;100.00;100023.31;7399855;19;20010;-58
2022/05/20 03:28:53;;;;;;;0.50;0.50;;;;;;;12.48;100.00;100014.56;7394587;19;20023;-58
2022/05/20 03:31:19;;;;;;;0.68;0.35;;;;;;;12.46;100.00;100008.69;7396742;19;20022;-58
2022/05/20 03:33:46;;;;;;;1.30;0.88;;;;;;;12.59;100.00;100016.75;7396166;19;20006;-59
2022/05/20 03:36:14;;;;;;;1.95;0.82;;;;;;;12.62;100.00;100013.00;7395844;19;20014;-59
2022/05/20 03:38:40;;;;;;;1.42;0.63;;;;;;;12.62;100.00;100013.00;7395382;19;20011;-59
2022/05/20 03:41:06;;;;;;;1.05;0.63;;;;;;;12.66;100.00;100010.75;7396157;19;20022;-58
2022/05/20 03:43:33;;;;;;;0.50;0.50;;;;;;;12.70;100.00;100023.28;7393026;19;20017;-59
2022/05/20 03:45:59;;;;;;;0.50;0.43;;;;;;;12.67;100.00;100017.88;7394727;19;20007;-59
2022/05/20 03:48:26;;;;;;;11.85;1.33;;;;;;;12.76;100.00;100012.16;7393914;19;20025;-58
2022/05/20 03:50:52;;;;;;;0.95;0.70;;;;;;;12.75;100.00;100019.03;7394881;19;20014;-58
2022/05/20 03:53:19;;;;;;;1.10;0.55;;;;;;;12.82;100.00;100015.81;7394453;19;20034;-58
2022/05/20 03:55:45;;;;;;;4.45;0.60;;;;;;;12.89;100.00;100018.19;7397860;19;20003;-59
2022/05/20 03:58:11;;;;;;;1.27;0.73;;;;;;;12.89;100.00;100007.78;7394665;19;20021;-58
2022/05/20 04:03:24;;;;;;;0.80;0.80;;;;;;;12.78;100.00;100002.03;7392709;19;20029;-59
2022/05/20 04:05:51;;;;;;;8.40;0.75;;;;;;;12.78;100.00;99999.25;7393607;19;20014;-58
2022/05/20 04:08:19;;;;;;;3.92;0.68;;;;;;;12.81;100.00;100006.66;7395167;19;20010;-59
2022/05/20 04:10:46;;;;;;;4.68;0.55;;;;;;;12.82;100.00;100010.25;7394454;19;20010;-59
2022/05/20 04:13:12;;;;;;;0.73;0.43;;;;;;;12.83;100.00;100009.75;7399357;19;20383;-58
2022/05/20 04:15:38;;;;;;;0.30;0.30;;;;;;;12.80;100.00;100009.94;7394073;19;20015;-58
2022/05/20 04:18:04;;;;;;;0.25;0.25;;;;;;;12.75;100.00;100005.06;7392479;19;20021;-59
2022/05/20 04:20:31;;;;;;;0.60;0.60;;;;;;;12.80;100.00;100009.94;7394055;19;20014;-58
2022/05/20 04:22:57;;;;;;;1.38;0.75;;;;;;;12.76;100.00;99998.19;7396988;19;20026;-58
2022/05/20 04:25:23;;;;;;;0.90;0.75;;;;;;;12.75;100.00;100007.84;7392846;19;20011;-58
2022/05/20 04:27:49;;;;;;;0.82;0.57;;;;;;;12.76;100.00;100007.34;7394028;19;20022;-59
2022/05/20 04:30:15;;;;;;;0.63;0.63;;;;;;;12.82;100.00;100007.44;7393451;19;20015;-58
2022/05/20 04:32:44;;;;;;;3.30;0.70;;;;;;;12.78;100.00;100012.44;7397685;19;20011;-59
2022/05/20 04:35:10;;;;;;;0.30;0.30;;;;;;;12.86;100.00;100019.94;7394155;19;20047;-59
2022/05/20 04:37:36;;;;;;;0.60;0.60;;;;;;;12.89;100.00;100012.59;7393306;19;20042;-59
2022/05/20 04:40:03;;;;;;;0.20;0.20;;;;;;;12.94;100.00;100007.09;7393569;19;20041;-58
2022/05/20 04:48:00;;;;;;;1.70;0.35;;;;;;;12.89;100.00;100029.38;7392973;19;20029;-59
2022/05/20 04:50:26;;;;;;;0.70;0.30;;;;;;;12.97;100.00;100021.34;7394148;19;20016;-58
2022/05/20 04:52:52;;;;;;;0.10;0.10;;;;;;;13.00;100.00;100007.16;7397078;19;20297;-59
2022/05/20 04:55:18;;;;;;;0.75;0.50;;;;;;;12.70;100.00;100008.53;7394192;19;20414;-58
2022/05/20 04:57:46;;;;;;;1.00;0.77;;;;;;;12.71;100.00;100012.88;7392111;19;20392;-58
2022/05/20 05:00:20;;;;;;;5.50;1.20;;;;;;;12.90;100.00;100014.94;7392685;19;20014;-58
2022/05/20 05:02:47;;;;;;;0.40;0.40;;;;;;;12.93;100.00;100032.72;7394946;19;20078;-58
2022/05/20 05:05:16;;;;;;;0.20;0.20;;;;;;;13.04;100.00;100030.09;7392666;19;20041;-59
2022/05/20 05:07:45;;;;;;;0.95;0.38;;;;;;;13.07;100.00;100023.56;7391287;19;20018;-59
2022/05/20 05:10:15;;;;;;;2.08;0.55;;;;;;;13.02;100.00;100026.25;7392197;19;20021;-58
2022/05/20 05:12:41;;;;;;;0.63;0.55;;;;;;;12.83;100.00;100028.53;7395785;19;20007;-58
2022/05/20 05:15:08;;;;;;;0.55;0.40;;;;;;;12.84;100.00;100016.09;7396333;19;20593;-59
2022/05/20 05:20:24;;;;;;;0.82;0.55;;;;;;;12.98;100.00;100023.66;7391037;19;20010;-59
2022/05/20 05:22:52;;;;;;;0.80;0.80;;;;;;;12.91;100.00;100026.84;7393398;19;20007;-59
2022/05/20 05:25:20;;;;;;;0.38;0.38;;;;;;;12.93;100.00;100027.13;7392620;19;20085;-59
2022/05/20 05:27:46;;;;;;;1.38;0.52;;;;;;;13.14;100.00;100030.75;7391927;19;20538;-59
2022/05/20 05:30:13;;;;;;;3.17;0.93;;;;;;;13.25;100.00;100028.88;7391809;19;20018;-56
2022/05/20 05:32:41;;;;;;;3.28;0.20;;;;;;;13.30;100.00;100024.59;7396129;19;20010;-54
2022/05/20 05:35:11;;;;;;;0.73;0.73;;;;;;;13.37;100.00;100024.94;7392227;19;20022;-53
2022/05/20 05:37:39;;;;;;;1.10;0.73;;;;;;;13.39;100.00;100025.22;7389253;19;20040;-53
2022/05/20 05:40:07;;;;;;;1.02;0.82;;;;;;;13.31;100.00;100015.72;7390346;19;20011;-53
2022/05/20 05:42:34;;;;;;;0.32;0.32;;;;;;;13.36;100.00;100022.66;7394873;19;20021;-53
2022/05/20 05:45:01;;;;;;;0.50;0.50;;;;;;;13.44;100.00;100024.53;7391560;19;20016;-53
2022/05/20 05:47:27;;;;;;;0.30;0.30;;;;;;;13.40;100.00;100035.19;7390855;19;20007;-53
2022/05/20 05:49:54;;;;;;;0.30;0.25;;;;;;;13.43;100.00;100034.19;7390994;19;20355;-53
2022/05/20 05:52:20;;;;;;;0.63;0.63;;;;;;;13.51;100.00;100028.94;7393551;19;20459;-53
2022/05/20 05:54:46;;;;;;;1.20;0.75;;;;;;;13.56;100.00;100037.38;7391944;19;20018;-53
2022/05/20 05:57:12;;;;;;;0.40;0.28;;;;;;;13.62;100.00;100045.84;7388544;19;20014;-54
2022/05/20 05:59:40;;;;;;;1.58;0.40;;;;;;;13.62;100.00;100040.25;7389525;19;20033;-54
2022/05/20 06:02:08;;;;;;;7.97;0.57;;;;;;;13.61;100.00;100050.69;7392152;19;20088;-54
2022/05/20 06:04:35;;;;;;;1.20;0.85;;;;;;;13.68;100.00;100041.09;7390920;19;20007;-53
2022/05/20 06:07:02;;;;;;;0.50;0.40;;;;;;;13.72;100.00;100040.84;7390589;19;20031;-53
2022/05/20 06:09:28;;;;;;;0.43;0.30;;;;;;;13.77;100.00;100040.16;7389221;19;20014;-53
2022/05/20 06:11:55;;;;;;;0.88;0.22;;;;;;;13.82;100.00;100042.25;7392595;19;20019;-53
2022/05/20 06:14:21;;;;;;;0.30;0.10;;;;;;;13.93;100.00;100043.13;7392308;19;20011;-53
2022/05/20 06:16:47;;;;;;;5.05;0.65;;;;;;;14.01;100.00;100037.88;7389331;19;20740;-54
2022/05/20 06:19:13;;;;;;;0.10;0.10;;;;;;;14.02;100.00;100031.75;7390081;19;20035;-53
2022/05/20 06:21:40;;;;;;;0.52;0.45;;;;;;;14.07;100.00;100035.88;7392027;19;20474;-53
2022/05/20 06:24:08;;;;;;;1.90;0.32;;;;;;;14.17;100.00;100034.44;7389290;19;20006;-53
2022/05/20 06:26:37;;;;;;;2.65;0.50;;;;;;;14.29;100.00;100031.25;7390356;19;20747;-53
2022/05/20 06:29:05;;;;;;;1.25;0.68;;;;;;;14.38;100.00;100027.50;7388961;19;20052;-53
2022/05/20 06:31:31;;;;;;;0.20;0.20;;;;;;;14.51;100.00;100008.25;7391378;19;20562;-52
2022/05/20 06:33:58;;;;;;;0.85;0.60;;;;;;;14.64;100.00;100010.66;7388987;19;20015;-52
2022/05/20 06:41:54;;;;;;;1.25;0.77;;;;;;;14.87;100.00;100007.47;7391208;19;20019;-53
2022/05/20 06:44:22;;;;;;;6.18;0.77;;;;;;;14.92;100.00;99998.31;7387601;19;20015;-53
2022/05/20 06:46:48;;;;;;;3.22;0.60;;;;;;;15.05;100.00;99993.00;7389702;19;20018;-53
2022/05/20 06:49:14;;;;;;;4.32;0.85;;;;;;;15.18;100.00;99996.13;7391389;19;20006;-53
2022/05/20 06:51:41;;;;;;;2.78;1.20;;;;;;;15.24;100.00;99992.59;7398121;19;20007;-53
2022/05/20 06:54:11;;;;;;;1.23;0.75;;;;;;;15.31;100.00;99983.69;7395973;19;20034;-53
2022/05/20 06:56:38;;;;;;;1.30;0.77;;;;;;;15.45;100.00;99983.50;7397038;19;20369;-53
2022/05/20 06:59:07;;;;;;;0.22;0.20;;;;;;;15.62;100.00;99981.50;7396599;19;20066;-53
2022/05/20 07:01:34;;;;;;;0.65;0.28;;;;;;;15.78;100.00;99980.03;7398991;19;20052;-53
2022/05/20 07:04:00;;;;;;;0.30;0.30;;;;;;;15.93;100.00;99977.75;7394984;19;20006;-53
2022/05/20 07:06:30;;;;;;;0.20;0.20;;;;;;;16.15;100.00;99966.50;7396182;19;20030;-54
2022/05/20 07:08:57;;;;;;;0.30;0.30;;;;;;;16.34;100.00;99967.53;7397546;19;20123;-53
2022/05/20 07:11:25;;;;;;;0.75;0.40;;;;;;;16.45;100.00;99966.75;7397031;19;20011;-54
2022/05/20 07:13:54;;;;;;;0.93;0.30;;;;;;;16.55;100.00;99970.84;7396582;19;20118;-54
2022/05/20 07:16:26;;;;;;;0.77;0.30;;;;;;;16.66;100.00;99968.78;7396672;19;20477;-54
2022/05/20 07:18:53;;;;;;;1.55;0.30;;;;;;;16.70;100.00;99953.69;7396038;19;20007;-54
2022/05/20 07:21:20;;;;;;;0.10;0.10;;;;;;;16.76;100.00;99962.88;7396728;19;20341;-54
2022/05/20 07:23:47;;;;;;;1.42;0.13;;;;;;;16.77;100.00;99955.94;7393638;19;20419;-54
2022/05/20 07:26:16;;;;;;;0.35;0.17;;;;;;;16.81;100.00;99964.88;7400674;19;20131;-54
2022/05/20 07:28:43;;;;;;;1.23;0.47;;;;;;;16.84;100.00;99969.50;7395821;19;20014;-54
2022/05/20 07:31:09;;;;;;;0.10;0.10;;;;;;;16.83;100.00;99965.91;7395500;19;20014;-54
2022/05/20 07:33:37;;;;;;;0.73;0.57;;;;;;;16.81;100.00;99967.69;7394091;19;20070;-54
2022/05/20 07:36:05;;;;;;;0.82;0.22;;;;;;;16.79;100.00;99961.81;7392656;19;20107;-54
2022/05/20 07:38:31;;;;;;;0.10;0.00;;;;;;;16.69;100.00;99964.16;7393649;19;20003;-54
2022/05/20 07:40:58;;;;;;;2.22;0.30;;;;;;;16.61;100.00;99963.19;7394489;19;20010;-55
2022/05/20 07:43:24;;;;;;;0.98;0.40;;;;;;;16.61;100.00;99958.28;7392912;19;20015;-54
2022/05/20 07:45:51;;;;;;;0.10;0.10;;;;;;;16.63;100.00;99950.09;7393693;19;20015;-54
2022/05/20 07:48:18;;;;;;;2.10;0.20;;;;;;;16.70;100.00;99967.75;7395619;19;20062;-54
2022/05/20 07:50:48;;;;;;;0.63;0.13;;;;;;;16.81;100.00;99970.50;7394995;19;20010;-54
2022/05/20 07:53:22;;;;;;;6.03;0.95;;;;;;;16.94;100.00;99967.91;7394073;19;20017;-54
2022/05/20 07:55:55;;;;;;;5.07;0.65;;;;;;;17.05;100.00;99967.88;7397760;19;20039;-54
2022/05/20 07:58:27;;;;;;;0.70;0.35;;;;;;;17.29;100.00;99973.66;7394428;19;20015;-54
2022/05/20 08:00:58;;;;;;;0.63;0.50;;;;;;;17.41;100.00;99961.09;7392166;19;20014;-55
2022/05/20 08:06:14;;;;;;;4.50;0.50;;;;;;;17.63;100.00;99955.31;7395015;19;20017;-54
2022/05/20 08:08:41;;;;;;;2.30;0.25;;;;;;;17.76;100.00;99952.69;7394291;19;20021;-55
2022/05/20 08:11:08;;;;;;;0.55;0.20;;;;;;;17.84;100.00;99953.66;7393526;19;20034;-55
2022/05/20 08:13:34;;;;;;;0.47;0.10;;;;;;;18.07;100.00;99948.59;7394690;19;20003;-54
2022/05/20 08:16:01;;;;;;;2.92;0.43;;;;;;;18.14;100.00;99948.81;7393571;19;20367;-55
2022/05/20 08:18:27;;;;;;;6.15;0.28;;;;;;;18.27;100.00;99941.78;7394432;19;20390;-54
2022/05/20 08:20:55;;;;;;;0.10;0.10;;;;;;;18.30;100.00;99932.28;7394166;19;20052;-55
2022/05/20 08:23:21;;;;;;;0.17;0.10;;;;;;;18.34;100.00;99938.38;7393175;19;20006;-54
2022/05/20 08:25:47;;;;;;;2.58;0.22;;;;;;;18.39;100.00;99931.91;7397018;19;20007;-55
2022/05/20 08:28:14;;;;;;;0.45;0.45;;;;;;;18.55;100.00;99931.00;7394238;19;20031;-54
2022/05/20 08:30:40;;;;;;;4.18;0.45;;;;;;;18.69;100.00;99919.31;7392284;19;20035;-54
2022/05/20 08:33:06;;;;;;;1.92;0.32;;;;;;;18.72;100.00;99920.31;7397731;19;20019;-55
2022/05/20 08:35:32;;;;;;;0.30;0.13;;;;;;;18.21;100.00;99912.88;7393508;19;20003;-54
2022/05/20 08:38:02;;;;;;;1.55;0.30;;;;;;;18.55;100.00;99911.28;7393976;19;20018;-54
2022/05/20 08:40:37;;;;;;;0.40;0.10;;;;;;;18.50;100.00;99912.09;7393837;19;20423;-54
2022/05/20 08:43:04;;;;;;;0.10;0.10;;;;;;;18.90;100.00;99911.13;7394773;19;20006;-55
2022/05/20 08:45:31;;;;;;;7.57;0.73;;;;;;;18.98;100.00;99900.75;7393822;19;20014;-54
2022/05/20 08:47:58;;;;;;;0.13;0.13;;;;;;;18.81;100.00;99891.72;7392779;19;20014;-55
2022/05/20 08:50:41;;;;;;;0.98;0.10;;;;;;;18.92;100.00;99897.25;7393089;19;20014;-54
2022/05/20 08:53:17;;;;;;;1.45;0.10;;;;;;;18.87;100.00;99898.06;7391224;19;20018;-55
2022/05/20 08:55:44;;;;;;;0.28;0.17;;;;;;;19.01;100.00;99891.22;7395674;19;20043;-55
2022/05/20 08:58:15;;;;;;;4.03;0.10;;;;;;;19.09;100.00;99885.72;7392824;19;20550;-55
2022/05/20 09:00:41;;;;;;;0.20;0.20;;;;;;;19.13;100.00;99877.72;7393424;19;20006;-52
2022/05/20 09:03:08;;;;;;;1.75;0.10;;;;;;;19.14;100.00;99880.03;7394523;19;20074;-53
2022/05/20 09:05:38;;;;;;;1.65;0.47;;;;;;;19.20;100.00;99865.81;7392535;19;20416;-53
2022/05/20 09:08:28;;;;;;;3.83;0.10;;;;;;;19.27;100.00;99871.63;7391086;19;20010;-53
2022/05/20 09:10:57;;;;;;;5.07;0.22;;;;;;;19.29;100.00;99868.25;7392544;19;20006;-53
2022/05/20 09:15:43;;;;;;;0.30;0.30;;;;;;;19.27;100.00;99865.97;7392379;19;20358;-53
2022/05/20 09:16:15;;;;;;;1.25;0.10;;;;;;;19.36;100.00;99874.06;7391979;19;20010;-53
2022/05/20 09:18:47;;;;;;;0.80;0.20;;;;;;;19.34;100.00;99862.53;7390151;19;20033;-53
2022/05/20 09:21:35;;;;;;;0.65;0.35;;;;;;;19.34;100.00;99864.59;7391227;19;20362;-53
2022/05/20 09:24:14;;;;;;;1.05;0.20;;;;;;;19.39;100.00;99866.59;7389648;19;20011;-53
2022/05/20 09:26:48;;;;;;;0.10;0.03;;;;;;;19.60;100.00;99871.13;7390640;19;20531;-53
2022/05/20 09:29:30;;;;;;;1.15;0.08;;;;;;;19.71;100.00;99858.88;7390735;19;20014;-53
2022/05/20 09:32:02;;;;;;;2.20;0.40;;;;;;;19.67;100.00;99869.75;7393715;19;20341;-53
2022/05/20 09:34:39;;;;;;;6.13;0.32;;;;;;;19.53;100.00;99868.94;7389742;19;20010;-53
2022/05/20 09:37:16;;;;;;;1.45;0.20;;;;;;;19.32;100.00;99864.34;7391564;19;20014;-53
2022/05/20 09:39:46;;;;;;;1.05;0.25;;;;;;;19.18;100.00;99863.53;7391181;19;20027;-53
2022/05/20 09:42:19;;;;;;;3.53;0.25;;;;;;;19.08;100.00;99859.56;7391823;19;20106;-53
2022/05/20 09:44:49;;;;;;;0.10;0.10;;;;;;;18.82;100.00;99856.56;7390954;19;20469;-53
2022/05/20 09:47:39;;;;;;;3.17;0.95;;;;;;;18.50;100.00;99855.69;7390471;19;20010;-53
2022/05/20 09:50:34;;;;;;;0.20;0.13;;;;;;;18.15;100.00;99868.59;7391182;19;20471;-53
2022/05/20 09:53:33;;;;;;;1.95;0.22;;;;;;;17.96;100.00;99864.94;7395604;19;20027;-54
2022/05/20 09:56:24;;;;;;;1.48;0.20;;;;;;;17.77;100.00;99866.13;7392537;19;20378;-55
2022/05/20 09:59:13;;;;;;;;;;;;;;;17.63;100.00;99879.28;7389904;19;20027;-55
2022/05/20 10:01:42;;;;;;;0.63;0.30;;;;;;;17.75;100.00;99865.88;7390979;19;19911;-56
2022/05/20 10:04:12;;;;;;;0.57;0.30;;;;;;;17.88;100.00;99861.16;7386646;19;20479;-56
2022/05/20 10:06:51;;;;;;;0.10;0.10;;;;;;;18.02;100.00;99859.22;7389607;19;20037;-55
2022/05/20 10:09:35;;;;;;;0.13;0.10;;;;;;;18.16;100.00;99861.66;7389307;19;20013;-55
2022/05/20 10:12:11;;;;;;;0.35;0.17;;;;;;;18.31;100.00;99860.47;7392112;19;20356;-55
2022/05/20 10:14:48;;;;;;;4.75;0.60;;;;;;;18.25;100.00;99860.56;7392814;19;20014;-56
2022/05/20 10:17:45;;;;;;;0.80;0.10;;;;;;;18.17;100.00;99857.53;7389303;19;20014;-55
2022/05/20 10:20:30;;;;;;;0.50;0.20;;;;;;;18.22;100.00;99858.00;7388794;19;20038;-56
2022/05/20 10:23:06;;;;;;;1.27;0.10;;;;;;;18.18;100.00;99847.81;7393528;19;20034;-56
2022/05/20 10:25:44;;;;;;;0.50;0.40;;;;;;;18.14;100.00;99841.69;7390156;19;20022;-56
2022/05/20 10:28:13;;;;;;;0.60;0.28;;;;;;;18.26;100.00;99830.31;7390099;19;20014;-56
2022/05/20 10:33:38;;;;;;;1.77;0.43;;;;;;;18.44;100.00;99830.38;7389263;19;20055;-56
2022/05/20 10:36:26;;;;;;;0.75;0.45;;;;;;;18.36;100.00;99835.06;7388690;19;20516;-55
2022/05/20 10:39:04;;;;;;;4.50;0.38;;;;;;;18.37;100.00;99827.34;7389850;19;20014;-55
2022/05/20 10:42:12;;;;;;;3.30;1.02;;;;;;;18.59;100.00;99824.28;7390787;19;20019;-56
2022/05/20 10:50:54;;;;;;;1.70;0.25;;;;;;;18.67;100.00;99823.16;7389119;19;20028;-55
2022/05/20 10:53:55;;;;;;;0.68;0.28;;;;;;;18.68;100.00;99816.22;7388822;19;20082;-55
2022/05/20 10:56:40;;;;;;;0.90;0.47;;;;;;;18.67;100.00;99811.09;7393255;19;20026;-55
2022/05/20 10:59:42;;;;;;;5.30;0.40;;;;;;;18.77;100.00;99807.41;7388945;19;20015;-55
2022/05/20 11:02:34;;;;;;;2.30;0.40;;;;;;;18.72;100.00;99810.28;7389431;19;20070;-55
2022/05/20 11:05:38;;;;;;;0.70;0.50;;;;;;;18.55;100.00;99801.28;7391833;19;20509;-55
2022/05/20 11:08:41;;;;;;;1.35;0.63;;;;;;;18.30;100.00;99796.94;7392597;19;20015;-55
2022/05/20 11:11:24;;;;;;;4.95;0.60;;;;;;;18.25;100.00;99801.34;7391402;19;20027;-55
2022/05/20 11:14:13;;;;;;;0.98;0.35;;;;;;;18.07;100.00;99799.22;7392972;19;20486;-55
2022/05/20 11:17:04;;;;;;;0.65;0.43;;;;;;;18.12;100.00;99790.72;7391896;19;20349;-55
2022/05/20 11:19:33;;;;;;;2.65;0.30;;;;;;;18.17;100.00;99789.88;7388071;19;20010;-55
2022/05/20 11:22:27;;;;;;;1.13;0.65;;;;;;;18.26;100.00;99779.56;7391273;19;20007;-55
2022/05/20 11:25:31;;;;;;;2.47;0.93;;;;;;;18.51;100.00;99786.72;7389489;19;20014;-55
2022/05/20 11:28:15;;;;;;;1.38;0.20;;;;;;;18.54;100.00;99782.81;7387628;19;20042;-55
2022/05/20 11:31:15;;;;;;;2.55;0.10;;;;;;;18.45;100.00;99774.75;7388807;19;20011;-55
2022/05/20 11:34:12;;;;;;;0.67;0.33;;;;;;;18.44;100.00;99767.53;7385374;19;20029;-55
2022/05/20 11:36:52;;;;;;;1.05;0.52;;;;;;;18.76;100.00;99765.59;7390898;19;20014;-55
2022/05/20 11:39:40;;;;;;;3.25;0.35;;;;;;;18.94;100.00;99764.81;7395786;19;20035;-55
2022/05/20 11:42:48;;;;;;;6.85;2.33;;;;;;;18.98;100.00;99759.63;7397185;19;20520;-55
2022/05/20 11:45:23;;;;;;;3.25;0.77;;;;;;;19.19;100.00;99754.94;7391582;19;20488;-55
2022/05/20 11:48:08;;;;;;;1.00;0.90;;;;;;;19.28;100.00;99742.47;7392717;19;20014;-55
2022/05/20 11:50:48;;;;;;;2.30;0.40;;;;;;;19.36;100.00;99749.06;7393891;19;20365;-55
2022/05/20 11:53:18;;;;;;;;;;;;;;;19.71;100.00;99742.28;7395325;19;20021;-55
2022/05/20 11:55:56;;;;;;;2.20;0.77;;;;;;;19.96;100.00;99754.91;7397240;19;20324;-54
2022/05/20 11:58:35;;;;;;;1.92;0.20;;;;;;;20.18;100.00;99748.81;7395108;19;20038;-54
2022/05/20 12:01:04;;;;;;;2.55;0.40;;;;;;;20.29;100.00;99742.97;7393367;19;20015;-54
2022/05/20 12:04:16;;;;;;;1.33;0.55;;;;;;;20.50;100.00;99740.97;7393509;19;20014;-54
2022/05/20 12:06:25;;;;;;;2.17;0.68;;;;;;;20.64;100.00;99733.22;7391183;19;20003;-54
2022/05/20 12:08:57;;;;;;;0.17;0.10;;;;;;;20.49;100.00;99742.28;7394428;19;20010;-54
2022/05/20 12:11:37;;;;;;;3.22;0.77;;;;;;;20.22;100.00;99737.97;7395486;19;20014;-54
2022/05/20 12:14:13;;;;;;;2.80;0.73;;;;;;;19.93;100.00;99727.72;7391559;19;20026;-83
2022/05/20 12:16:59;;;;;;;1.65;0.20;;;;;;;19.53;100.00;99730.50;7382019;19;20030;-81
2022/05/20 12:25:28;;;;;;;1.15;0.20;;;;;;;18.39;100.00;99723.25;7392990;19;20456;-82